createdAt,value
2019-05-16T00:02:37.704Z,9.60
2019-05-16T00:05:51.409Z,9.70
2019-05-16T00:08:48.970Z,9.60
2019-05-16T00:11:54.109Z,9.60
2019-05-16T00:14:59.166Z,9.60
2019-05-16T00:18:04.300Z,9.60
2019-05-16T00:21:09.359Z,9.60
2019-05-16T00:24:14.473Z,9.60
2019-05-16T00:27:19.602Z,9.60
2019-05-16T00:30:24.731Z,9.60
2019-05-16T00:33:29.791Z,9.60
2019-05-16T00:36:34.942Z,9.70
2019-05-16T00:39:39.995Z,9.70
2019-05-16T00:42:45.176Z,9.70
2019-05-16T00:45:50.187Z,9.70
2019-05-16T00:48:55.259Z,9.80
2019-05-16T00:52:00.467Z,9.80
2019-05-16T00:55:05.694Z,9.80
2019-05-16T00:58:11.912Z,9.70
2019-05-16T01:01:18.928Z,9.70
2019-05-16T01:04:23.675Z,9.70
2019-05-16T01:07:28.746Z,9.70
2019-05-16T01:10:33.957Z,9.80
2019-05-16T01:13:39.098Z,9.80
2019-05-16T01:16:44.171Z,9.80
2019-05-16T01:19:49.298Z,9.70
2019-05-16T01:22:54.355Z,9.70
2019-05-16T01:25:59.415Z,9.70
2019-05-16T01:29:04.619Z,9.70
2019-05-16T01:32:09.810Z,9.70
2019-05-16T01:35:15.139Z,9.80
2019-05-16T01:38:20.220Z,9.80
2019-05-16T01:41:25.338Z,9.80
2019-05-16T01:44:30.551Z,9.80
2019-05-16T01:47:35.708Z,9.80
2019-05-16T01:50:40.759Z,9.70
2019-05-16T01:53:45.816Z,9.70
2019-05-16T01:56:50.943Z,9.70
2019-05-16T01:59:56.164Z,9.60
2019-05-16T02:03:01.391Z,9.60
2019-05-16T02:06:08.671Z,9.60
2019-05-16T02:09:13.433Z,9.60
2019-05-16T02:12:18.658Z,9.50
2019-05-16T02:15:23.770Z,9.50
2019-05-16T02:18:29.046Z,9.50
2019-05-16T02:21:34.332Z,9.50
2019-05-16T02:24:39.399Z,9.50
2019-05-16T02:27:44.603Z,9.40
2019-05-16T02:30:51.526Z,9.40
2019-05-16T02:33:56.490Z,9.40
2019-05-16T02:37:19.091Z,9.40
2019-05-16T02:40:11.822Z,9.40
2019-05-16T02:43:15.604Z,9.40
2019-05-16T02:46:21.854Z,9.50
2019-05-16T02:49:30.611Z,9.60
2019-05-16T02:52:34.382Z,9.60
2019-05-16T02:55:41.003Z,9.60
2019-05-16T02:58:46.363Z,9.60
2019-05-16T03:01:52.278Z,9.70
2019-05-16T03:05:00.624Z,9.70
2019-05-16T03:08:04.961Z,9.70
2019-05-16T03:11:11.845Z,9.70
2019-05-16T03:14:21.292Z,9.60
2019-05-16T03:17:31.611Z,9.60
2019-05-16T03:20:35.341Z,9.50
2019-05-16T03:23:42.019Z,9.50
2019-05-16T03:26:47.175Z,9.60
2019-05-16T03:29:52.086Z,9.60
2019-05-16T03:32:56.999Z,9.70
2019-05-16T03:36:04.499Z,9.70
2019-05-16T03:39:10.668Z,9.70
2019-05-16T03:42:15.158Z,9.70
2019-05-16T03:45:21.158Z,9.70
2019-05-16T03:48:26.545Z,9.80
2019-05-16T03:51:31.539Z,9.70
2019-05-16T03:54:36.451Z,9.70
2019-05-16T03:57:41.984Z,9.70
2019-05-16T04:00:53.264Z,9.70
2019-05-16T04:04:01.395Z,9.70
2019-05-16T04:07:04.810Z,9.80
2019-05-16T04:10:11.091Z,9.80
2019-05-16T04:13:16.570Z,9.80
2019-05-16T04:16:21.574Z,9.80
2019-05-16T04:19:26.495Z,9.90
2019-05-16T04:22:31.947Z,10.00
2019-05-16T04:25:37.078Z,10.00
2019-05-16T04:28:42.073Z,10.00
2019-05-16T04:31:47.071Z,9.90
2019-05-16T04:34:52.000Z,9.80
2019-05-16T04:37:56.909Z,9.70
2019-05-16T04:41:01.950Z,9.70
2019-05-16T04:44:07.060Z,9.80
2019-05-16T04:47:12.006Z,9.80
2019-05-16T04:50:20.827Z,9.80
2019-05-16T04:53:24.108Z,9.80
2019-05-16T04:56:30.861Z,9.80
2019-05-16T04:59:35.640Z,9.90
2019-05-16T05:02:41.711Z,9.80
2019-05-16T05:05:50.869Z,9.80
2019-05-16T05:08:59.123Z,9.80
2019-05-16T05:12:04.365Z,9.80
2019-05-16T05:15:11.148Z,9.80
2019-05-16T05:18:15.063Z,9.70
2019-05-16T05:21:20.910Z,9.80
2019-05-16T05:24:26.163Z,9.80
2019-05-16T05:27:31.083Z,9.80
2019-05-16T05:30:36.096Z,9.80
2019-05-16T05:33:41.610Z,9.90
2019-05-16T05:36:46.807Z,10.00
2019-05-16T05:39:51.922Z,10.10
2019-05-16T05:42:56.934Z,10.10
2019-05-16T05:46:02.432Z,10.10
2019-05-16T05:49:07.447Z,10.10
2019-05-16T05:52:12.802Z,10.10
2019-05-16T05:55:20.047Z,10.00
2019-05-16T05:58:24.678Z,10.00
2019-05-16T06:01:31.574Z,10.00
2019-05-16T06:04:36.243Z,10.00
2019-05-16T06:07:41.290Z,10.10
2019-05-16T06:10:46.333Z,10.10
2019-05-16T06:13:51.329Z,10.10
2019-05-16T06:17:00.166Z,10.30
2019-05-16T06:20:04.495Z,10.30
2019-05-16T06:23:10.629Z,10.50
2019-05-16T06:26:15.874Z,10.60
2019-05-16T06:29:21.390Z,10.70
2019-05-16T06:32:26.330Z,10.70
2019-05-16T06:35:31.267Z,10.80
2019-05-16T06:38:36.212Z,10.80
2019-05-16T06:41:41.151Z,10.90
2019-05-16T06:44:46.107Z,11.00
2019-05-16T06:47:51.031Z,10.90
2019-05-16T06:50:56.192Z,10.90
2019-05-16T06:54:01.202Z,10.90
2019-05-16T06:57:06.195Z,11.00
2019-05-16T07:00:12.190Z,11.10
2019-05-16T07:03:17.189Z,11.10
2019-05-16T07:06:46.096Z,11.10
2019-05-16T07:09:30.131Z,11.10
2019-05-16T07:12:35.324Z,11.00
2019-05-16T07:15:40.430Z,11.10
2019-05-16T07:18:45.446Z,11.10
2019-05-16T07:21:50.935Z,11.10
2019-05-16T07:24:59.883Z,11.10
2019-05-16T07:28:05.287Z,11.10
2019-05-16T07:31:17.592Z,11.10
2019-05-16T07:34:17.011Z,11.10
2019-05-16T07:37:21.947Z,11.20
2019-05-16T07:40:27.168Z,11.40
2019-05-16T07:43:32.321Z,11.70
2019-05-16T07:46:37.354Z,11.80
2019-05-16T07:49:42.361Z,11.90
2019-05-16T07:52:47.373Z,12.10
2019-05-16T07:55:52.488Z,12.30
2019-05-16T07:58:57.436Z,12.40
2019-05-16T08:02:02.431Z,12.60
2019-05-16T08:05:09.990Z,12.60
2019-05-16T08:08:14.414Z,12.60
2019-05-16T08:11:23.265Z,12.80
2019-05-16T08:14:26.115Z,12.80
2019-05-16T08:17:31.555Z,12.80
2019-05-16T08:20:36.699Z,13.00
2019-05-16T08:23:41.646Z,13.10
2019-05-16T08:26:46.665Z,13.20
2019-05-16T08:29:51.694Z,13.00
2019-05-16T08:32:56.643Z,13.10
2019-05-16T08:39:11.088Z,13.30
2019-05-16T08:42:15.395Z,13.40
2019-05-16T08:45:21.499Z,13.50
2019-05-16T08:48:26.568Z,13.50
2019-05-16T08:50:10.976Z,13.20
2019-05-16T08:51:33.161Z,13.50
2019-05-16T08:54:42.982Z,13.60
2019-05-16T08:57:45.139Z,13.50
2019-05-16T09:03:56.954Z,13.50
2019-05-16T09:07:02.203Z,13.40
2019-05-16T09:10:34.643Z,13.60
2019-05-16T09:10:35.822Z,13.40
2019-05-16T09:13:16.799Z,13.40
2019-05-16T09:16:21.604Z,13.30
2019-05-16T09:19:27.535Z,13.20
2019-05-16T09:22:32.842Z,13.20
2019-05-16T09:25:37.812Z,13.20
2019-05-16T09:28:42.806Z,13.10
2019-05-16T09:32:07.089Z,13.20
2019-05-16T09:35:03.859Z,13.20
2019-05-16T09:38:01.171Z,13.20
2019-05-16T09:41:07.844Z,13.20
2019-05-16T09:44:12.979Z,13.10
2019-05-16T09:47:17.938Z,13.20
2019-05-16T09:50:23.957Z,13.10
2019-05-16T09:53:29.058Z,13.10
2019-05-16T09:56:34.105Z,13.00
2019-05-16T09:59:39.128Z,13.00
2019-05-16T10:02:44.140Z,13.00
2019-05-16T10:05:49.245Z,13.00
2019-05-16T10:08:54.330Z,13.10
2019-05-16T10:12:11.322Z,12.90
2019-05-16T10:15:07.649Z,12.80
2019-05-16T10:18:12.858Z,12.90
2019-05-16T10:21:20.662Z,13.00
2019-05-16T10:24:26.874Z,13.00
2019-05-16T10:27:31.374Z,12.90
2019-05-16T10:30:37.677Z,13.00
2019-05-16T10:33:43.027Z,13.20
2019-05-16T10:36:48.042Z,13.40
2019-05-16T10:39:53.197Z,13.50
2019-05-16T10:42:58.195Z,13.20
2019-05-16T10:46:03.314Z,13.10
2019-05-16T10:49:08.337Z,12.90
2019-05-16T10:52:13.275Z,12.90
2019-05-16T10:55:18.496Z,13.10
2019-05-16T10:58:36.617Z,13.20
2019-05-16T11:01:31.443Z,13.30
2019-05-16T11:04:52.701Z,13.50
2019-05-16T11:07:47.758Z,13.50
2019-05-16T11:10:51.696Z,13.50
2019-05-16T11:13:56.722Z,13.60
2019-05-16T11:17:01.928Z,13.40
2019-05-16T11:20:07.411Z,13.10
2019-05-16T11:23:12.505Z,13.00
2019-05-16T11:26:17.703Z,12.90
2019-05-16T11:29:22.767Z,12.70
2019-05-16T11:32:27.707Z,12.70
2019-05-16T11:35:32.783Z,12.70
2019-05-16T11:38:38.057Z,12.50
2019-05-16T11:41:43.426Z,12.30
2019-05-16T11:44:48.519Z,12.30
2019-05-16T11:47:53.515Z,12.30
2019-05-16T11:50:58.813Z,12.30
2019-05-16T11:54:04.027Z,12.20
2019-05-16T11:57:09.147Z,12.10
2019-05-16T12:00:17.977Z,12.00
2019-05-16T12:03:22.635Z,11.90
2019-05-16T12:06:27.877Z,11.80
2019-05-16T12:09:37.350Z,11.80
2019-05-16T12:12:40.558Z,11.80
2019-05-16T12:15:45.695Z,11.80
2019-05-16T12:18:50.655Z,11.90
2019-05-16T12:21:57.106Z,11.90
2019-05-16T12:25:02.326Z,11.80
2019-05-16T12:28:08.072Z,11.70
2019-05-16T12:31:13.633Z,11.70
2019-05-16T12:34:18.565Z,11.60
2019-05-16T12:37:23.610Z,11.50
2019-05-16T12:40:28.677Z,11.40
2019-05-16T12:43:46.159Z,11.20
2019-05-16T12:46:40.566Z,11.20
2019-05-16T12:49:47.228Z,11.20
2019-05-16T12:52:52.478Z,11.20
2019-05-16T12:55:57.633Z,11.30
2019-05-16T12:59:02.650Z,11.50
2019-05-16T13:02:07.746Z,11.60
2019-05-16T13:05:12.935Z,11.70
2019-05-16T13:08:17.942Z,11.80
2019-05-16T13:11:23.024Z,11.80
2019-05-16T13:14:28.078Z,11.80
2019-05-16T13:17:33.245Z,11.80
2019-05-16T13:20:41.249Z,11.80
2019-05-16T13:23:46.745Z,11.70
2019-05-16T13:26:52.097Z,11.70
2019-05-16T13:29:58.175Z,11.70
2019-05-16T13:33:03.562Z,11.60
2019-05-16T13:36:08.847Z,11.50
2019-05-16T13:39:13.869Z,11.40
2019-05-16T13:42:19.188Z,11.30
2019-05-16T13:45:26.995Z,11.30
2019-05-16T13:48:31.158Z,11.30
2019-05-16T13:51:37.394Z,11.30
2019-05-16T13:54:42.582Z,11.20
2019-05-16T13:57:47.727Z,11.10
2019-05-16T14:00:52.931Z,11.10
2019-05-16T14:03:58.086Z,11.10
2019-05-16T14:07:03.163Z,11.10
2019-05-16T14:10:09.918Z,11.10
2019-05-16T14:13:16.499Z,11.10
2019-05-16T14:16:21.974Z,11.20
2019-05-16T14:19:27.435Z,11.30
2019-05-16T14:22:33.043Z,11.30
2019-05-16T14:25:38.328Z,11.20
2019-05-16T14:28:44.664Z,11.20
2019-05-16T14:31:49.973Z,11.20
2019-05-16T14:34:58.163Z,11.20
2019-05-16T14:38:02.523Z,11.20
2019-05-16T14:41:08.241Z,11.30
2019-05-16T14:44:13.544Z,11.20
2019-05-16T14:47:18.858Z,11.30
2019-05-16T14:50:27.363Z,11.30
2019-05-16T14:53:30.710Z,11.30
2019-05-16T14:56:38.706Z,11.20
2019-05-16T14:59:43.844Z,11.20
2019-05-16T15:02:50.536Z,11.20
2019-05-16T15:05:58.759Z,11.20
2019-05-16T15:09:02.420Z,11.20
2019-05-16T15:12:07.398Z,11.30
2019-05-16T15:15:21.290Z,11.30
2019-05-16T15:18:22.460Z,11.30
2019-05-16T15:21:27.547Z,11.30
2019-05-16T15:24:32.779Z,11.40
2019-05-16T15:27:37.887Z,11.50
2019-05-16T15:30:46.990Z,11.40
2019-05-16T15:33:52.153Z,11.30
2019-05-16T15:37:00.012Z,11.20
2019-05-16T15:40:07.206Z,11.20
2019-05-16T15:43:12.787Z,11.30
2019-05-16T15:46:17.991Z,11.30
2019-05-16T15:49:23.042Z,11.30
2019-05-16T15:52:30.178Z,11.30
2019-05-16T15:55:36.358Z,11.30
2019-05-16T15:58:41.631Z,11.40
2019-05-16T16:01:47.402Z,11.30
2019-05-16T16:04:52.734Z,11.20
2019-05-16T16:07:57.885Z,11.00
2019-05-16T16:11:03.227Z,11.00
2019-05-16T16:14:08.440Z,11.00
2019-05-16T16:17:13.794Z,11.00
2019-05-16T16:20:19.012Z,11.00
2019-05-16T16:23:27.059Z,11.00
2019-05-16T16:26:30.947Z,10.90
2019-05-16T16:29:36.709Z,10.90
2019-05-16T16:32:41.958Z,10.90
2019-05-16T16:35:47.934Z,10.90
2019-05-16T16:38:53.399Z,10.80
2019-05-16T16:41:58.570Z,10.70
2019-05-16T16:45:03.734Z,10.70
2019-05-16T16:48:09.003Z,10.70
2019-05-16T16:51:14.215Z,10.70
2019-05-16T16:54:19.275Z,10.70
2019-05-16T16:57:26.923Z,10.60
2019-05-16T17:00:31.245Z,10.60
2019-05-16T17:03:36.508Z,10.60
2019-05-16T17:06:41.722Z,10.60
2019-05-16T17:09:47.180Z,10.60
2019-05-16T17:12:52.320Z,10.60
2019-05-16T17:15:57.505Z,10.60
2019-05-16T17:19:02.730Z,10.50
2019-05-16T17:22:17.227Z,10.50
2019-05-16T17:25:15.015Z,10.40
2019-05-16T17:28:20.146Z,10.50
2019-05-16T17:31:25.243Z,10.40
2019-05-16T17:34:30.472Z,10.40
2019-05-16T17:37:37.451Z,10.40
2019-05-16T17:40:42.484Z,10.40
2019-05-16T17:43:51.137Z,10.40
2019-05-16T17:46:57.469Z,10.40
2019-05-16T17:50:02.943Z,10.50
2019-05-16T17:53:08.039Z,10.40
2019-05-16T17:56:13.170Z,10.40
2019-05-16T17:59:18.200Z,10.30
2019-05-16T18:02:23.289Z,10.30
2019-05-16T18:05:28.712Z,10.30
2019-05-16T18:08:33.695Z,10.30
2019-05-16T18:11:38.690Z,10.20
2019-05-16T18:14:46.731Z,10.20
2019-05-16T18:17:50.941Z,10.20
2019-05-16T18:21:01.645Z,10.20
2019-05-16T18:24:02.644Z,10.30
2019-05-16T18:27:07.725Z,10.30
2019-05-16T18:30:16.457Z,10.20
2019-05-16T18:33:21.039Z,10.20
2019-05-16T18:36:26.536Z,10.30
2019-05-16T18:39:31.654Z,10.20
2019-05-16T18:42:37.065Z,10.20
2019-05-16T18:45:42.297Z,10.10
2019-05-16T18:48:47.353Z,10.10
2019-05-16T18:51:52.368Z,10.10
2019-05-16T18:54:57.753Z,10.20
2019-05-16T18:58:04.826Z,10.10
2019-05-16T19:01:09.726Z,10.10
2019-05-16T19:04:17.319Z,10.10
2019-05-16T19:07:21.777Z,10.10
2019-05-16T19:10:27.041Z,10.10
2019-05-16T19:13:32.276Z,10.10
2019-05-16T19:16:37.349Z,10.10
2019-05-16T19:19:42.394Z,10.10
2019-05-16T19:22:47.786Z,10.10
2019-05-16T19:25:52.973Z,10.10
2019-05-16T19:28:58.082Z,10.10
2019-05-16T19:32:03.346Z,10.10
2019-05-16T19:35:08.746Z,10.20
2019-05-16T19:38:13.782Z,10.10
2019-05-16T19:41:18.761Z,10.20
2019-05-16T19:44:23.947Z,10.10
2019-05-16T19:47:37.139Z,10.20
2019-05-16T19:50:37.428Z,10.30
2019-05-16T19:53:42.605Z,10.20
2019-05-16T19:56:47.541Z,10.20
2019-05-16T19:59:52.671Z,10.10
2019-05-16T20:02:57.884Z,10.10
2019-05-16T20:06:02.928Z,10.10
2019-05-16T20:09:08.713Z,10.10
2019-05-16T20:12:13.810Z,10.20
2019-05-16T20:15:19.030Z,10.10
2019-05-16T20:18:24.139Z,10.10
2019-05-16T20:21:29.321Z,10.00
2019-05-16T20:24:36.177Z,10.00
2019-05-16T20:27:41.080Z,10.00
2019-05-16T20:30:47.510Z,10.00
2019-05-16T20:33:52.670Z,10.10
2019-05-16T20:36:57.785Z,10.00
2019-05-16T20:40:02.953Z,10.10
2019-05-16T20:43:07.995Z,10.10
2019-05-16T20:46:13.085Z,10.10
2019-05-16T20:49:18.132Z,10.00
2019-05-16T20:52:23.150Z,10.00
2019-05-16T20:55:28.110Z,10.10
2019-05-16T20:58:33.043Z,10.10
2019-05-16T21:01:38.094Z,10.10
2019-05-16T21:04:43.201Z,10.10
2019-05-16T21:07:48.855Z,10.20
2019-05-16T21:10:54.138Z,10.20
2019-05-16T21:13:59.068Z,10.20
2019-05-16T21:17:06.525Z,10.20
2019-05-16T21:20:11.350Z,10.20
2019-05-16T21:23:19.400Z,10.20
2019-05-16T21:26:23.086Z,10.10
2019-05-16T21:29:28.034Z,10.10
2019-05-16T21:32:33.068Z,10.10
2019-05-16T21:35:38.021Z,10.10
2019-05-16T21:38:42.961Z,10.10
2019-05-16T21:41:48.066Z,10.10
2019-05-16T21:44:53.102Z,10.10
2019-05-16T21:47:58.123Z,10.20
2019-05-16T21:51:03.125Z,10.20
2019-05-16T21:54:08.237Z,10.20
2019-05-16T21:57:15.260Z,10.20
2019-05-16T22:00:27.150Z,10.20
2019-05-16T22:03:32.397Z,10.30
2019-05-16T22:06:37.561Z,10.30
2019-05-16T22:09:42.646Z,10.30
2019-05-16T22:12:47.794Z,10.30
2019-05-16T22:15:52.906Z,10.40
2019-05-16T22:18:57.907Z,10.50
2019-05-16T22:22:02.926Z,10.50
2019-05-16T22:25:09.671Z,10.60
2019-05-16T22:28:17.133Z,10.60
2019-05-16T22:31:21.622Z,10.60
2019-05-16T22:34:26.658Z,10.60
2019-05-16T22:37:31.706Z,10.70
2019-05-16T22:40:37.435Z,10.70
2019-05-16T22:43:42.695Z,10.80
2019-05-16T22:46:48.698Z,10.80
2019-05-16T22:49:53.738Z,10.80
2019-05-16T22:52:58.765Z,10.80
2019-05-16T22:56:03.822Z,10.80
2019-05-16T22:59:08.829Z,10.80
2019-05-16T23:02:13.870Z,10.80
2019-05-16T23:05:18.893Z,10.80
2019-05-16T23:08:23.893Z,10.80
2019-05-16T23:11:28.918Z,10.80
2019-05-16T23:14:33.854Z,10.80
2019-05-16T23:17:38.791Z,10.90
2019-05-16T23:20:43.725Z,10.90
2019-05-16T23:23:49.492Z,10.80
2019-05-16T23:26:56.342Z,10.80
2019-05-16T23:30:01.075Z,10.80
2019-05-16T23:33:07.198Z,10.80
2019-05-16T23:36:12.521Z,10.80
2019-05-16T23:39:17.732Z,10.80
2019-05-16T23:42:22.809Z,10.80
2019-05-16T23:45:27.893Z,10.70
2019-05-16T23:48:32.854Z,10.80
2019-05-16T23:51:37.799Z,10.70
2019-05-16T23:54:42.746Z,10.70
2019-05-16T23:57:47.758Z,10.70
